Crowheart, Wyoming
Current Conditions -  °F | °C
As of 4:55 PM on Friday 31 Oct 2014 (Local Time) from KDUB Reporting Station
Clear Clear  
Wind Chill: 57°   Ceiling: Unl
Heat Index: 57°   Visibility: 10mi
Dew Point: 21°   Wind: 9mph
Humidity: 25%   Direction: 290°WNW
Pressure: 29.99"   Gusts: NA
Location:  43.31°N, 109.2°W
Report Text: KDUB 312255Z AUTO 29008KT 10SM CLR 14/M06 A2999 RMK AO2
Loading
Personal Weather Stations






























Interactive Weather Map
Tropical Storm Tracking
New forecast layout! Learn more

10-Day Weather Forecast

Advertisements
Track Severe Weather on mobile